createdAt,value
2017-09-12T00:01:43.554Z,-59
2017-09-12T00:11:48.786Z,-58
2017-09-12T00:21:43.605Z,-59
2017-09-12T00:31:47.352Z,-58
2017-09-12T00:41:42.621Z,-59
2017-09-12T00:51:42.513Z,-59
2017-09-12T01:01:43.670Z,-56
2017-09-12T01:11:42.699Z,-59
2017-09-12T01:21:42.602Z,-59
2017-09-12T01:31:44.649Z,-58
2017-09-12T01:41:43.650Z,-59
2017-09-12T01:51:51.834Z,-58
2017-09-12T02:01:42.653Z,-58
2017-09-12T02:11:42.666Z,-58
2017-09-12T02:21:44.645Z,-58
2017-09-12T02:31:46.472Z,-59
2017-09-12T02:41:44.661Z,-58
2017-09-12T02:51:47.865Z,-58
2017-09-12T03:01:48.998Z,-59
2017-09-12T03:11:43.786Z,-59
2017-09-12T03:21:48.829Z,-60
2017-09-12T03:31:43.769Z,-60
2017-09-12T03:41:42.755Z,-59
2017-09-12T03:51:42.725Z,-58
2017-09-12T04:01:42.746Z,-58
2017-09-12T04:11:49.425Z,-58
2017-09-12T04:21:42.721Z,-58
2017-09-12T04:31:43.810Z,-59
2017-09-12T04:41:43.788Z,-59
2017-09-12T04:51:43.832Z,-58
2017-09-12T05:01:43.752Z,-58
2017-09-12T05:11:42.805Z,-59
2017-09-12T05:21:43.091Z,-58
2017-09-12T05:31:42.871Z,-58
2017-09-12T05:41:43.857Z,-59
2017-09-12T05:51:43.820Z,-59
2017-09-12T06:01:42.866Z,-58
2017-09-12T06:11:43.853Z,-59
2017-09-12T06:21:43.399Z,-59
2017-09-12T06:31:42.931Z,-57
2017-09-12T06:41:42.899Z,-58
2017-09-12T06:51:42.940Z,-57
2017-09-12T07:01:46.219Z,-59
2017-09-12T07:11:43.509Z,-58
2017-09-12T07:21:43.747Z,-58
2017-09-12T07:31:42.908Z,-59
2017-09-12T07:41:42.950Z,-58
2017-09-12T07:51:43.982Z,-57
2017-09-12T08:01:43.167Z,-59
2017-09-12T08:11:43.834Z,-57
2017-09-12T08:21:44.073Z,-58
2017-09-12T08:31:45.338Z,-57
2017-09-12T08:41:49.316Z,-55
2017-09-12T08:51:43.030Z,-58
2017-09-12T09:01:43.020Z,-59
2017-09-12T09:11:42.997Z,-59
2017-09-12T09:21:42.948Z,-57
2017-09-12T09:31:43.014Z,-57
2017-09-12T09:41:42.949Z,-58
2017-09-12T09:51:42.922Z,-57
2017-09-12T10:01:42.945Z,-58
2017-09-12T10:11:42.964Z,-58
2017-09-12T10:21:42.960Z,-59
2017-09-12T10:31:42.931Z,-58
2017-09-12T10:41:42.976Z,-58
2017-09-12T10:51:42.987Z,-57
2017-09-12T11:01:42.952Z,-59
2017-09-12T11:11:42.985Z,-58
2017-09-12T11:21:42.989Z,-58
2017-09-12T11:31:43.080Z,-58
2017-09-12T11:41:43.016Z,-59
2017-09-12T11:51:43.040Z,-58
2017-09-12T12:01:42.994Z,-58
2017-09-12T12:11:43.053Z,-58
2017-09-12T12:21:43.070Z,-59
2017-09-12T12:31:43.149Z,-58
2017-09-12T12:41:43.062Z,-58
2017-09-12T12:51:43.039Z,-59
2017-09-12T13:01:43.110Z,-58
2017-09-12T13:11:43.752Z,-55
2017-09-12T13:21:43.095Z,-58
2017-09-12T13:31:43.031Z,-58
2017-09-12T13:41:43.000Z,-59
2017-09-12T13:51:43.080Z,-58
2017-09-12T14:01:43.056Z,-58
2017-09-12T14:11:43.075Z,-59
2017-09-12T14:21:43.050Z,-56
2017-09-12T14:31:42.972Z,-58
2017-09-12T14:41:43.087Z,-57
2017-09-12T14:51:43.068Z,-59
2017-09-12T15:01:43.159Z,-60
2017-09-12T15:11:43.190Z,-60
2017-09-12T15:21:43.023Z,-62
2017-09-12T15:31:43.077Z,-60
2017-09-12T15:41:43.028Z,-58
2017-09-12T15:51:43.001Z,-59
2017-09-12T16:01:50.189Z,-57
2017-09-12T16:11:50.323Z,-59
2017-09-12T16:21:49.471Z,-62
2017-09-12T16:31:49.308Z,-63
2017-09-12T16:42:44.197Z,-67
2017-09-12T16:52:44.884Z,-63
2017-09-12T17:02:37.993Z,-67
2017-09-12T17:13:54.219Z,-66
2017-09-12T17:23:55.616Z,-69
2017-09-12T17:33:57.612Z,-64
2017-09-12T17:44:02.672Z,-62
2017-09-12T17:53:58.161Z,-67
2017-09-12T18:03:58.614Z,-62
2017-09-12T18:13:54.993Z,-63
2017-09-12T18:23:54.865Z,-67
2017-09-12T18:34:06.759Z,-59
2017-09-12T18:43:44.650Z,-59
2017-09-12T18:53:54.555Z,-59
2017-09-12T19:03:58.996Z,-60
2017-09-12T19:13:43.702Z,-64
2017-09-12T19:23:53.915Z,-62
2017-09-12T19:33:50.973Z,-61
2017-09-12T19:43:52.380Z,-60
2017-09-12T19:53:48.889Z,-61
2017-09-12T20:03:52.052Z,-61
2017-09-12T20:13:50.445Z,-61
2017-09-12T20:23:52.611Z,-56
2017-09-12T20:33:54.558Z,-61
2017-09-12T20:43:54.304Z,-61
2017-09-12T20:53:53.408Z,-62
2017-09-12T21:03:54.984Z,-61
2017-09-12T21:13:55.032Z,-62
2017-09-12T21:22:38.020Z,-62
2017-09-12T21:32:38.089Z,-61
2017-09-12T21:42:38.046Z,-61
2017-09-12T21:52:38.033Z,-62
2017-09-12T22:02:38.084Z,-63
2017-09-12T22:12:38.048Z,-60
2017-09-12T22:22:38.209Z,-59
2017-09-12T22:32:38.032Z,-58
2017-09-12T22:42:38.028Z,-59
2017-09-12T22:52:38.087Z,-58
2017-09-12T23:02:38.036Z,-58
2017-09-12T23:12:38.071Z,-58
2017-09-12T23:22:38.046Z,-59
2017-09-12T23:32:38.009Z,-59
2017-09-12T23:42:38.003Z,-58
2017-09-12T23:52:38.008Z,-58
